sensor_id;sensor_type;location;lat;lon;timestamp;pressure;altitude;pressure_sealevel;temperature;humidity
35758;BME280;21879;50.110;18.900;2023-10-13T00:03:20;98717.26;;;16.74;69.65
35758;BME280;21879;50.110;18.900;2023-10-13T00:13:47;98705.36;;;16.67;69.62
35758;BME280;21879;50.110;18.900;2023-10-13T00:24:15;98699.16;;;16.64;69.55
35758;BME280;21879;50.110;18.900;2023-10-13T00:34:48;98684.59;;;16.59;69.61
35758;BME280;21879;50.110;18.900;2023-10-13T00:45:20;98683.32;;;16.60;69.51
35758;BME280;21879;50.110;18.900;2023-10-13T00:55:46;98691.38;;;16.60;69.14
35758;BME280;21879;50.110;18.900;2023-10-13T01:06:13;98691.42;;;16.43;68.89
35758;BME280;21879;50.110;18.900;2023-10-13T01:16:41;98677.09;;;16.32;68.94
35758;BME280;21879;50.110;18.900;2023-10-13T01:27:09;98668.22;;;16.34;69.01
35758;BME280;21879;50.110;18.900;2023-10-13T01:37:43;98672.37;;;16.31;68.70
35758;BME280;21879;50.110;18.900;2023-10-13T01:48:09;98673.20;;;16.32;68.40
35758;BME280;21879;50.110;18.900;2023-10-13T01:58:36;98668.86;;;16.26;68.13
35758;BME280;21879;50.110;18.900;2023-10-13T02:09:03;98666.11;;;16.18;68.05
35758;BME280;21879;50.110;18.900;2023-10-13T02:19:38;98668.64;;;16.05;68.06
35758;BME280;21879;50.110;18.900;2023-10-13T02:30:10;98670.08;;;15.82;67.87
35758;BME280;21879;50.110;18.900;2023-10-13T02:40:39;98667.28;;;15.82;67.99
35758;BME280;21879;50.110;18.900;2023-10-13T02:51:07;98675.05;;;15.68;67.51
35758;BME280;21879;50.110;18.900;2023-10-13T03:01:40;98685.08;;;15.55;67.53
35758;BME280;21879;50.110;18.900;2023-10-13T03:12:07;98689.42;;;15.62;67.76
35758;BME280;21879;50.110;18.900;2023-10-13T03:22:33;98682.84;;;15.72;67.79
35758;BME280;21879;50.110;18.900;2023-10-13T03:33:01;98674.41;;;15.60;67.79
35758;BME280;21879;50.110;18.900;2023-10-13T03:43:31;98675.02;;;15.39;68.05
35758;BME280;21879;50.110;18.900;2023-10-13T03:53:57;98673.50;;;15.37;68.64
35758;BME280;21879;50.110;18.900;2023-10-13T04:04:24;98668.65;;;15.47;68.73
35758;BME280;21879;50.110;18.900;2023-10-13T04:15:00;98662.63;;;15.55;68.48
35758;BME280;21879;50.110;18.900;2023-10-13T04:25:47;98664.48;;;15.52;68.41
35758;BME280;21879;50.110;18.900;2023-10-13T04:36:46;98658.67;;;15.58;68.74
35758;BME280;21879;50.110;18.900;2023-10-13T04:47:20;98660.50;;;15.68;68.65
35758;BME280;21879;50.110;18.900;2023-10-13T04:57:47;98669.91;;;15.76;68.71
35758;BME280;21879;50.110;18.900;2023-10-13T05:08:18;98679.84;;;15.78;68.84
35758;BME280;21879;50.110;18.900;2023-10-13T05:19:02;98693.30;;;15.74;68.98
35758;BME280;21879;50.110;18.900;2023-10-13T05:29:47;98700.88;;;15.84;69.59
35758;BME280;21879;50.110;18.900;2023-10-13T05:40:31;98703.69;;;15.84;69.99
35758;BME280;21879;50.110;18.900;2023-10-13T05:51:23;98720.41;;;15.87;70.69
35758;BME280;21879;50.110;18.900;2023-10-13T06:02:08;98728.30;;;15.99;71.22
35758;BME280;21879;50.110;18.900;2023-10-13T06:12:52;98727.56;;;16.05;71.80
35758;BME280;21879;50.110;18.900;2023-10-13T06:23:36;98733.33;;;16.06;72.13
35758;BME280;21879;50.110;18.900;2023-10-13T06:34:20;98745.11;;;16.11;72.81
35758;BME280;21879;50.110;18.900;2023-10-13T06:45:03;98753.52;;;16.22;73.21
35758;BME280;21879;50.110;18.900;2023-10-13T06:55:33;98755.80;;;16.28;73.38
35758;BME280;21879;50.110;18.900;2023-10-13T07:06:06;98755.58;;;16.35;73.78
35758;BME280;21879;50.110;18.900;2023-10-13T07:16:42;98756.86;;;16.50;73.95
35758;BME280;21879;50.110;18.900;2023-10-13T07:27:11;98762.66;;;16.55;74.06
35758;BME280;21879;50.110;18.900;2023-10-13T07:37:47;98763.29;;;16.68;74.34
35758;BME280;21879;50.110;18.900;2023-10-13T07:48:18;98769.71;;;16.81;74.33
35758;BME280;21879;50.110;18.900;2023-10-13T07:58:45;98769.35;;;16.86;74.24
35758;BME280;21879;50.110;18.900;2023-10-13T08:09:17;98760.20;;;17.07;74.68
35758;BME280;21879;50.110;18.900;2023-10-13T08:19:57;98763.89;;;17.28;74.46
35758;BME280;21879;50.110;18.900;2023-10-13T08:30:24;98771.55;;;17.49;74.31
35758;BME280;21879;50.110;18.900;2023-10-13T08:40:56;98765.31;;;17.71;74.00
35758;BME280;21879;50.110;18.900;2023-10-13T08:51:49;98759.09;;;17.96;73.81
35758;BME280;21879;50.110;18.900;2023-10-13T09:02:30;98749.59;;;18.10;72.79
35758;BME280;21879;50.110;18.900;2023-10-13T09:13:10;98740.48;;;18.31;72.49
35758;BME280;21879;50.110;18.900;2023-10-13T09:23:46;98734.41;;;18.72;71.52
35758;BME280;21879;50.110;18.900;2023-10-13T09:34:20;98732.92;;;19.03;70.30
35758;BME280;21879;50.110;18.900;2023-10-13T09:44:48;98736.13;;;19.22;69.16
35758;BME280;21879;50.110;18.900;2023-10-13T09:55:26;98728.48;;;19.39;68.25
35758;BME280;21879;50.110;18.900;2023-10-13T10:05:58;98736.45;;;19.58;68.06
35758;BME280;21879;50.110;18.900;2023-10-13T10:16:39;98722.86;;;19.82;66.98
35758;BME280;21879;50.110;18.900;2023-10-13T10:27:11;98706.17;;;20.06;66.41
35758;BME280;21879;50.110;18.900;2023-10-13T10:37:39;98690.82;;;20.14;65.23
35758;BME280;21879;50.110;18.900;2023-10-13T10:48:12;98676.95;;;20.16;64.77
35758;BME280;21879;50.110;18.900;2023-10-13T10:58:43;98670.43;;;20.12;64.74
35758;BME280;21879;50.110;18.900;2023-10-13T11:09:09;98669.34;;;20.16;64.43
35758;BME280;21879;50.110;18.900;2023-10-13T11:19:46;98667.08;;;20.30;64.08
35758;BME280;21879;50.110;18.900;2023-10-13T11:30:13;98665.30;;;20.34;64.07
35758;BME280;21879;50.110;18.900;2023-10-13T11:40:44;98648.02;;;20.33;63.80
35758;BME280;21879;50.110;18.900;2023-10-13T11:51:31;98647.19;;;20.35;63.91
35758;BME280;21879;50.110;18.900;2023-10-13T12:01:58;98637.73;;;20.45;63.66
35758;BME280;21879;50.110;18.900;2023-10-13T12:12:41;98631.80;;;20.58;63.94
35758;BME280;21879;50.110;18.900;2023-10-13T12:23:11;98623.55;;;20.71;63.56
35758;BME280;21879;50.110;18.900;2023-10-13T12:33:42;98619.17;;;20.70;63.37
35758;BME280;21879;50.110;18.900;2023-10-13T12:44:12;98623.48;;;20.72;63.46
35758;BME280;21879;50.110;18.900;2023-10-13T12:54:56;98611.34;;;20.64;62.78
35758;BME280;21879;50.110;18.900;2023-10-13T13:05:31;98600.36;;;20.64;62.88
35758;BME280;21879;50.110;18.900;2023-10-13T13:16:05;98587.78;;;20.62;62.87
35758;BME280;21879;50.110;18.900;2023-10-13T13:26:32;98584.56;;;20.52;62.98
35758;BME280;21879;50.110;18.900;2023-10-13T13:37:00;98572.31;;;20.50;63.61
35758;BME280;21879;50.110;18.900;2023-10-13T13:47:26;98560.47;;;20.43;63.82
35758;BME280;21879;50.110;18.900;2023-10-13T13:57:53;98564.36;;;20.47;63.85
35758;BME280;21879;50.110;18.900;2023-10-13T14:08:22;98561.02;;;20.43;63.79
35758;BME280;21879;50.110;18.900;2023-10-13T14:18:50;98560.64;;;20.29;63.77
35758;BME280;21879;50.110;18.900;2023-10-13T14:29:17;98559.91;;;20.20;64.08
35758;BME280;21879;50.110;18.900;2023-10-13T14:39:44;98555.98;;;20.07;64.40
35758;BME280;21879;50.110;18.900;2023-10-13T14:50:12;98547.21;;;19.95;64.76
35758;BME280;21879;50.110;18.900;2023-10-13T15:00:45;98535.13;;;19.82;65.28
35758;BME280;21879;50.110;18.900;2023-10-13T15:11:17;98530.59;;;19.78;65.46
35758;BME280;21879;50.110;18.900;2023-10-13T15:22:00;98522.76;;;19.72;65.68
35758;BME280;21879;50.110;18.900;2023-10-13T15:33:01;98510.80;;;19.60;65.95
35758;BME280;21879;50.110;18.900;2023-10-13T15:43:47;98509.06;;;19.45;66.27
35758;BME280;21879;50.110;18.900;2023-10-13T15:54:44;98504.45;;;19.38;66.48
35758;BME280;21879;50.110;18.900;2023-10-13T16:05:31;98500.93;;;19.35;66.61
35758;BME280;21879;50.110;18.900;2023-10-13T16:16:29;98496.21;;;19.30;66.96
35758;BME280;21879;50.110;18.900;2023-10-13T16:27:13;98492.77;;;19.32;67.19
35758;BME280;21879;50.110;18.900;2023-10-13T16:38:11;98483.42;;;19.29;67.01
35758;BME280;21879;50.110;18.900;2023-10-13T16:48:54;98468.89;;;19.16;67.26
35758;BME280;21879;50.110;18.900;2023-10-13T16:59:21;98462.21;;;19.04;67.44
35758;BME280;21879;50.110;18.900;2023-10-13T17:09:52;98455.77;;;18.84;67.38
35758;BME280;21879;50.110;18.900;2023-10-13T17:20:22;98447.41;;;18.55;67.74
35758;BME280;21879;50.110;18.900;2023-10-13T17:30:50;98436.48;;;18.40;68.23
35758;BME280;21879;50.110;18.900;2023-10-13T17:41:17;98428.38;;;18.36;68.48
35758;BME280;21879;50.110;18.900;2023-10-13T17:51:45;98426.92;;;18.33;68.48
35758;BME280;21879;50.110;18.900;2023-10-13T18:02:12;98420.92;;;18.37;68.26
35758;BME280;21879;50.110;18.900;2023-10-13T18:12:40;98408.61;;;18.18;68.34
35758;BME280;21879;50.110;18.900;2023-10-13T18:23:07;98405.30;;;18.13;68.52
35758;BME280;21879;50.110;18.900;2023-10-13T18:33:37;98404.17;;;18.15;68.43
35758;BME280;21879;50.110;18.900;2023-10-13T18:44:05;98392.23;;;18.06;68.36
35758;BME280;21879;50.110;18.900;2023-10-13T18:54:34;98390.15;;;17.97;68.31
35758;BME280;21879;50.110;18.900;2023-10-13T19:05:01;98384.19;;;17.85;68.33
35758;BME280;21879;50.110;18.900;2023-10-13T19:15:28;98380.36;;;17.80;68.39
35758;BME280;21879;50.110;18.900;2023-10-13T19:26:01;98378.05;;;17.68;68.53
35758;BME280;21879;50.110;18.900;2023-10-13T19:36:29;98374.14;;;17.65;68.73
35758;BME280;21879;50.110;18.900;2023-10-13T19:46:58;98374.50;;;17.65;68.43
35758;BME280;21879;50.110;18.900;2023-10-13T19:57:26;98362.02;;;17.53;68.56
35758;BME280;21879;50.110;18.900;2023-10-13T20:07:52;98363.99;;;17.43;68.74
35758;BME280;21879;50.110;18.900;2023-10-13T20:18:20;98357.95;;;17.28;68.19
35758;BME280;21879;50.110;18.900;2023-10-13T20:28:47;98341.41;;;17.21;68.62
35758;BME280;21879;50.110;18.900;2023-10-13T20:39:13;98338.30;;;17.20;68.38
35758;BME280;21879;50.110;18.900;2023-10-13T20:49:49;98326.46;;;17.12;68.36
35758;BME280;21879;50.110;18.900;2023-10-13T21:00:17;98310.48;;;16.92;68.25
35758;BME280;21879;50.110;18.900;2023-10-13T21:10:50;98307.26;;;16.89;68.72
35758;BME280;21879;50.110;18.900;2023-10-13T21:21:18;98291.60;;;16.81;68.28
35758;BME280;21879;50.110;18.900;2023-10-13T21:31:46;98283.04;;;16.66;68.36
35758;BME280;21879;50.110;18.900;2023-10-13T21:42:13;98283.64;;;16.51;68.28
35758;BME280;21879;50.110;18.900;2023-10-13T21:52:40;98276.70;;;16.32;68.29
35758;BME280;21879;50.110;18.900;2023-10-13T22:03:08;98265.55;;;16.34;68.63
35758;BME280;21879;50.110;18.900;2023-10-13T22:13:38;98256.48;;;16.46;68.61
35758;BME280;21879;50.110;18.900;2023-10-13T22:24:07;98239.92;;;16.43;68.68
35758;BME280;21879;50.110;18.900;2023-10-13T22:34:35;98228.33;;;16.35;68.42
35758;BME280;21879;50.110;18.900;2023-10-13T22:45:02;98210.43;;;16.18;68.22
35758;BME280;21879;50.110;18.900;2023-10-13T22:55:28;98200.16;;;16.20;68.32
35758;BME280;21879;50.110;18.900;2023-10-13T23:06:01;98196.77;;;16.39;67.50
35758;BME280;21879;50.110;18.900;2023-10-13T23:16:29;98197.62;;;16.39;67.28
35758;BME280;21879;50.110;18.900;2023-10-13T23:26:57;98175.64;;;16.28;67.48
35758;BME280;21879;50.110;18.900;2023-10-13T23:37:24;98166.10;;;16.30;67.38
35758;BME280;21879;50.110;18.900;2023-10-13T23:47:55;98145.55;;;16.26;67.44
35758;BME280;21879;50.110;18.900;2023-10-13T23:58:24;98144.08;;;16.10;66.64
